Arispe, IA

10:07 AM CDT on October 23, 2014 (GMT -0500)
Creston Municipal | Change Station
CLOSE
Current Station
Airport
Location: Creston,
Elevation: 1293 ft
Nearby Weather Stations
Active Advisory: Special Statement

Elev 1293 ft 41.02 °N, 94.36 °W | Updated 12 minutes ago

Overcast
Overcast
57 °F
Feels Like 57 °F
N
6
Wind Variable Wind from SSW

Today
High -- | Low -- °F
--% Chance of Precip.
Yesterday
High -- | Low -- °F
Precip. -- in
7:36 AM 6:23 PM
Waning Crescent, 0% visible
Pressure 30.06 in
Visibility 0.2 miles
Clouds Overcast 300 ft
Dew Point 57 °F
Humidity 100%
Rainfall 0.31 in
Snow Depth Not available.
UV 1 out of 12
Pollen .30 out of 12
Air Quality Not available.
Flu Activity Sporadic
METAR KCSQ 231455Z AUTO 20005KT 1/4SM FG OVC003 14/14 A3006 RMK AO2

More Conditions Fewer Conditions

Pressure 30.06 in
Visibility 0.2 miles
Clouds Overcast 300 ft
Dew Point 57 °F
Humidity 100%
Rainfall 0.31 in
Snow Depth Not available.
UV 1 out of 12
Pollen .30 out of 12
Air Quality Not available.
Flu Activity Sporadic
METAR KCSQ 231455Z AUTO 20005KT 1/4SM FG OVC003 14/14 A3006 RMK AO2

More Conditions Fewer Conditions

10-Day Weather Forecast

Almanac

Astronomy

Oct. 23, 2014 Rise Set
Actual Time 7:36 AM CDT 6:23 PM CDT
Civil Twilight 7:08 AM CDT 6:51 PM CDT
Nautical Twilight 6:36 AM CDT 7:23 PM CDT
Astronomical Twilight 6:04 AM CDT 7:55 PM CDT
Moon 7:16 AM CDT 6:25 PM CDT
Length of Visible Light 11h 43m
Length of Day
10h 47m
Tomorrow will be 2m 32s shorter.
Waning Crescent, 0% of the Moon is Illuminated
Today
Waning Crescent
Oct 23
New
Oct 30
First Quarter
Nov 6
Full
Nov 14
Last Quarter

Today's Extremes

State Highs State Lows

Community

WunderPhotos

Upload Photos

1,764,277 photos uploaded!

Nearby

Snow Depth

Station Depth Elevation
No new snow has been reported.

Earthquake Activity

City Distance Mag. Time & Date
No recent earthquake activity has been reported nearby.
Minimum magnitude displayed is 2.5.

Coastal Water Temperatures

Place Temperature
No Stations Reporting

Nearby Weather Stations